createdAt,value
2022-09-21T00:01:08.228Z,98691.09
2022-09-21T00:03:34.613Z,98694.13
2022-09-21T00:06:00.900Z,98698.06
2022-09-21T00:08:27.535Z,98699.28
2022-09-21T00:10:53.795Z,98692.56
2022-09-21T00:13:20.044Z,98692.94
2022-09-21T00:15:46.536Z,98697.69
2022-09-21T00:18:12.871Z,98701.78
2022-09-21T00:20:39.079Z,98703.84
2022-09-21T00:23:05.271Z,98705.06
2022-09-21T00:25:31.531Z,98702.00
2022-09-21T00:27:58.387Z,98705.72
2022-09-21T00:30:24.621Z,98696.50
2022-09-21T00:32:50.889Z,98707.34
2022-09-21T00:35:19.053Z,98707.56
2022-09-21T00:37:45.838Z,98708.00
2022-09-21T00:40:12.565Z,98705.72
2022-09-21T00:42:38.796Z,98705.16
2022-09-21T00:45:05.013Z,98703.94
2022-09-21T00:47:31.757Z,98703.31
2022-09-21T00:49:57.942Z,98701.91
2022-09-21T00:52:24.522Z,98706.81
2022-09-21T00:54:50.723Z,98709.66
2022-09-21T00:57:16.914Z,98710.09
2022-09-21T00:59:44.691Z,98711.34
2022-09-21T01:02:10.929Z,98718.69
2022-09-21T01:04:37.496Z,98709.28
2022-09-21T01:07:03.866Z,98716.63
2022-09-21T01:09:30.114Z,98714.41
2022-09-21T01:11:56.421Z,98714.63
2022-09-21T01:14:22.631Z,98704.41
2022-09-21T01:16:48.828Z,98716.25
2022-09-21T01:19:15.038Z,98724.22
2022-09-21T01:21:41.285Z,98718.28
2022-09-21T01:24:07.680Z,98715.84
2022-09-21T01:26:33.919Z,98721.38
2022-09-21T01:29:00.520Z,98718.09
2022-09-21T01:31:27.049Z,98731.59
2022-09-21T01:33:53.492Z,98728.31
2022-09-21T01:36:19.700Z,98726.91
2022-09-21T01:38:45.915Z,98732.41
2022-09-21T01:41:12.116Z,98730.16
2022-09-21T01:43:38.299Z,98731.41
2022-09-21T01:46:04.658Z,98733.44
2022-09-21T01:48:30.898Z,98737.09
2022-09-21T01:50:57.099Z,98733.88
2022-09-21T01:53:23.445Z,98729.75
2022-09-21T01:55:49.670Z,98736.06
2022-09-21T01:58:15.936Z,98735.47
2022-09-21T02:00:42.670Z,98741.78
2022-09-21T02:03:08.972Z,98734.22
2022-09-21T02:05:35.156Z,98736.25
2022-09-21T02:08:01.548Z,98740.16
2022-09-21T02:10:27.738Z,98750.94
2022-09-21T02:12:54.204Z,98747.72
2022-09-21T02:15:20.462Z,98747.88
2022-09-21T02:17:47.089Z,98748.09
2022-09-21T02:20:13.381Z,98750.13
2022-09-21T02:22:39.606Z,98744.22
2022-09-21T02:25:05.874Z,98744.41
2022-09-21T02:27:32.550Z,98749.13
2022-09-21T02:29:58.740Z,98745.03
2022-09-21T02:32:24.982Z,98744.41
2022-09-21T02:34:51.265Z,98737.47
2022-09-21T02:37:17.478Z,98737.06
2022-09-21T02:39:43.666Z,98735.41
2022-09-21T02:42:09.920Z,98733.16
2022-09-21T02:44:36.342Z,98730.72
2022-09-21T02:47:02.537Z,98740.72
2022-09-21T02:49:28.766Z,98737.22
2022-09-21T02:51:54.990Z,98739.28
2022-09-21T02:54:21.330Z,98741.31
2022-09-21T02:56:47.597Z,98741.53
2022-09-21T02:59:13.814Z,98729.47
2022-09-21T03:01:40.367Z,98737.63
2022-09-21T03:04:06.596Z,98742.31
2022-09-21T03:06:32.874Z,98743.34
2022-09-21T03:08:59.070Z,98735.56
2022-09-21T03:11:25.522Z,98738.63
2022-09-21T03:13:51.750Z,98736.19
2022-09-21T03:16:17.975Z,98744.53
2022-09-21T03:18:44.193Z,98736.78
2022-09-21T03:21:10.410Z,98742.31
2022-09-21T03:23:36.768Z,98744.13
2022-09-21T03:26:03.030Z,98735.75
2022-09-21T03:28:29.631Z,98736.94
2022-09-21T03:30:55.886Z,98747.75
2022-09-21T03:33:22.211Z,98750.63
2022-09-21T03:35:48.849Z,98751.66
2022-09-21T03:38:15.077Z,98744.50
2022-09-21T03:40:41.520Z,98743.50
2022-09-21T03:43:07.779Z,98753.47
2022-09-21T03:45:34.000Z,98750.19
2022-09-21T03:48:00.314Z,98756.97
2022-09-21T03:50:26.787Z,98749.84
2022-09-21T03:52:53.028Z,98757.81
2022-09-21T03:55:19.225Z,98759.66
2022-09-21T03:57:45.725Z,98758.88
2022-09-21T04:00:12.015Z,98760.69
2022-09-21T04:02:38.226Z,98753.19
2022-09-21T04:05:04.466Z,98761.16
2022-09-21T04:07:30.763Z,98762.81
2022-09-21T04:09:57.354Z,98761.16
2022-09-21T04:12:24.235Z,98766.88
2022-09-21T04:14:50.530Z,98759.75
2022-09-21T04:17:16.753Z,98758.75
2022-09-21T04:19:42.982Z,98759.75
2022-09-21T04:22:09.503Z,98761.63
2022-09-21T04:24:35.710Z,98764.50
2022-09-21T04:27:01.912Z,98763.06
2022-09-21T04:29:28.716Z,98747.31
2022-09-21T04:31:54.941Z,98763.47
2022-09-21T04:34:21.590Z,98757.34
2022-09-21T04:36:47.792Z,98757.56
2022-09-21T04:39:13.956Z,98760.41
2022-09-21T04:41:40.148Z,98762.44
2022-09-21T04:44:06.369Z,98757.53
2022-09-21T04:46:32.657Z,98758.13
2022-09-21T04:48:58.933Z,98758.53
2022-09-21T04:51:25.700Z,98756.50
2022-09-21T04:53:51.914Z,98757.91
2022-09-21T04:56:18.272Z,98758.53
2022-09-21T04:58:44.497Z,98756.28
2022-09-21T05:01:10.851Z,98765.69
2022-09-21T05:03:37.109Z,98763.44
2022-09-21T05:06:03.898Z,98761.38
2022-09-21T05:08:30.231Z,98769.75
2022-09-21T05:10:56.907Z,98767.69
2022-09-21T05:13:23.180Z,98776.28
2022-09-21T05:15:49.418Z,98775.06
2022-09-21T05:18:15.719Z,98775.66
2022-09-21T05:20:41.957Z,98775.25
2022-09-21T05:23:08.244Z,98776.69
2022-09-21T05:25:34.491Z,98786.91
2022-09-21T05:28:00.753Z,98783.00
2022-09-21T05:30:27.714Z,98785.44
2022-09-21T05:32:54.028Z,98789.34
2022-09-21T05:35:20.905Z,98792.78
2022-09-21T05:37:47.418Z,98795.00
2022-09-21T05:40:13.752Z,98785.97
2022-09-21T05:42:43.643Z,98794.94
2022-09-21T05:45:09.987Z,98796.13
2022-09-21T05:47:36.566Z,98798.53
2022-09-21T05:50:02.809Z,98801.19
2022-09-21T05:52:29.089Z,98804.69
2022-09-21T05:54:55.535Z,98806.09
2022-09-21T05:57:21.741Z,98805.88
2022-09-21T05:59:47.975Z,98803.59
2022-09-21T06:02:14.263Z,98814.44
2022-09-21T06:04:40.675Z,98809.72
2022-09-21T06:07:07.099Z,98817.28
2022-09-21T06:09:33.334Z,98815.63
2022-09-21T06:12:00.681Z,98814.69
2022-09-21T06:14:26.917Z,98808.25
2022-09-21T06:16:53.474Z,98811.91
2022-09-21T06:19:22.425Z,98817.16
2022-09-21T06:21:48.863Z,98818.34
2022-09-21T06:24:15.195Z,98832.13
2022-09-21T06:26:41.431Z,98826.97
2022-09-21T06:32:23.971Z,98852.19
2022-09-21T06:35:04.907Z,98842.94
2022-09-21T06:37:31.135Z,98851.19
2022-09-21T06:40:00.640Z,98843.41
2022-09-21T06:42:28.389Z,98845.53
2022-09-21T06:44:54.775Z,98847.97
2022-09-21T06:47:21.411Z,98854.25
2022-09-21T06:49:47.683Z,98852.72
2022-09-21T06:52:14.087Z,98851.31
2022-09-21T06:54:40.516Z,98860.25
2022-09-21T06:57:06.793Z,98861.13
2022-09-21T06:59:33.638Z,98864.44
2022-09-21T07:02:01.103Z,98862.03
2022-09-21T07:04:27.592Z,98857.19
2022-09-21T07:06:55.888Z,98866.34
2022-09-21T07:12:08.378Z,98864.41
2022-09-21T07:14:35.409Z,98869.44
2022-09-21T07:17:01.651Z,98876.34
2022-09-21T07:19:27.956Z,98869.84
2022-09-21T07:21:54.462Z,98868.94
2022-09-21T07:24:20.764Z,98873.13
2022-09-21T07:26:48.504Z,98874.91
2022-09-21T07:29:14.833Z,98876.69
2022-09-21T07:31:41.578Z,98874.91
2022-09-21T07:34:07.893Z,98872.94
2022-09-21T07:36:34.396Z,98878.41
2022-09-21T07:39:00.766Z,98883.09
2022-09-21T07:41:31.257Z,98876.44
2022-09-21T07:44:01.727Z,98879.63
2022-09-21T07:46:28.298Z,98879.63
2022-09-21T07:48:58.508Z,98875.28
2022-09-21T07:51:37.011Z,98872.84
2022-09-21T07:54:06.373Z,98857.50
2022-09-21T07:56:35.563Z,98856.66
2022-09-21T07:59:03.110Z,98859.47
2022-09-21T08:01:29.717Z,98855.28
2022-09-21T08:03:57.210Z,98864.66
2022-09-21T08:06:24.943Z,98871.34
2022-09-21T08:08:58.057Z,98865.06
2022-09-21T08:11:25.055Z,98870.88
2022-09-21T08:13:54.713Z,98867.56
2022-09-21T08:16:27.062Z,98869.13
2022-09-21T08:18:53.930Z,98875.47
2022-09-21T08:21:20.409Z,98871.53
2022-09-21T08:23:46.748Z,98874.09
2022-09-21T08:26:13.013Z,98872.78
2022-09-21T08:28:39.516Z,98867.16
2022-09-21T08:31:06.186Z,98866.41
2022-09-21T08:33:36.764Z,98876.56
2022-09-21T08:36:06.477Z,98874.47
2022-09-21T08:38:58.167Z,98877.75
2022-09-21T08:41:29.003Z,98886.94
2022-09-21T08:43:55.401Z,98892.63
2022-09-21T08:46:24.362Z,98883.13
2022-09-21T08:48:54.471Z,98889.34
2022-09-21T08:51:31.990Z,98881.25
2022-09-21T08:54:10.514Z,98876.38
2022-09-21T09:02:36.764Z,98855.34
2022-09-21T09:07:58.267Z,98859.09
2022-09-21T09:10:24.994Z,98860.09
2022-09-21T09:12:51.408Z,98850.22
2022-09-21T09:15:18.724Z,98850.84
2022-09-21T09:17:46.708Z,98847.25
2022-09-21T09:20:21.968Z,98843.94
2022-09-21T09:22:52.867Z,98847.91
2022-09-21T09:31:08.028Z,98847.44
2022-09-21T09:33:34.365Z,98846.03
2022-09-21T09:36:00.710Z,98846.00
2022-09-21T09:38:26.951Z,98846.75
2022-09-21T09:40:53.226Z,98845.66
2022-09-21T09:43:19.474Z,98845.47
2022-09-21T09:45:46.280Z,98847.78
2022-09-21T09:48:12.676Z,98849.78
2022-09-21T09:50:40.947Z,98848.25
2022-09-21T09:53:07.358Z,98851.16
2022-09-21T09:55:33.792Z,98844.59
2022-09-21T09:58:01.563Z,98849.78
2022-09-21T10:00:28.015Z,98844.53
2022-09-21T10:02:54.438Z,98839.59
2022-09-21T10:05:20.870Z,98840.00
2022-09-21T10:07:47.546Z,98849.56
2022-09-21T10:10:13.965Z,98848.81
2022-09-21T10:12:40.508Z,98845.25
2022-09-21T10:15:06.734Z,98832.38
2022-09-21T10:17:33.145Z,98835.75
2022-09-21T10:19:59.560Z,98833.50
2022-09-21T10:22:26.553Z,98835.53
2022-09-21T10:24:52.864Z,98840.00
2022-09-21T10:27:19.683Z,98838.47
2022-09-21T10:29:46.002Z,98829.69
2022-09-21T10:32:14.953Z,98825.50
2022-09-21T10:34:42.163Z,98826.22
2022-09-21T10:37:08.830Z,98828.00
2022-09-21T10:39:35.152Z,98823.94
2022-09-21T10:42:01.608Z,98818.53
2022-09-21T10:44:27.992Z,98828.34
2022-09-21T10:49:20.972Z,98831.63
2022-09-21T10:51:47.279Z,98829.72
2022-09-21T10:54:13.725Z,98832.56
2022-09-21T10:56:40.277Z,98834.28
2022-09-21T10:59:06.815Z,98838.97
2022-09-21T11:01:33.295Z,98833.34
2022-09-21T11:03:59.693Z,98828.31
2022-09-21T11:06:26.301Z,98827.97
2022-09-21T11:08:53.167Z,98829.25
2022-09-21T11:11:19.490Z,98829.03
2022-09-21T11:13:45.893Z,98820.78
2022-09-21T11:16:12.326Z,98825.13
2022-09-21T11:18:40.429Z,98829.09
2022-09-21T11:21:07.448Z,98832.78
2022-09-21T11:23:34.151Z,98828.59
2022-09-21T11:26:00.705Z,98833.72
2022-09-21T11:28:28.632Z,98826.44
2022-09-21T11:30:54.974Z,98822.72
2022-09-21T11:33:21.308Z,98819.47
2022-09-21T11:35:47.732Z,98807.63
2022-09-21T11:38:14.441Z,98809.53
2022-09-21T11:40:41.163Z,98813.25
2022-09-21T11:43:08.077Z,98810.81
2022-09-21T11:45:34.965Z,98811.59
2022-09-21T11:48:01.517Z,98801.63
2022-09-21T11:50:31.709Z,98796.25
2022-09-21T11:52:58.461Z,98797.34
2022-09-21T11:55:25.370Z,98799.97
2022-09-21T11:57:54.358Z,98792.88
2022-09-21T12:00:22.193Z,98781.19
2022-09-21T12:02:48.615Z,98788.53
2022-09-21T12:05:18.548Z,98779.91
2022-09-21T12:07:44.845Z,98782.84
2022-09-21T12:10:11.292Z,98779.34
2022-09-21T12:12:38.021Z,98780.41
2022-09-21T12:15:04.339Z,98774.22
2022-09-21T12:17:31.457Z,98777.16
2022-09-21T12:19:58.430Z,98779.28
2022-09-21T12:22:25.158Z,98771.47
2022-09-21T12:24:51.527Z,98771.72
2022-09-21T12:27:17.923Z,98775.47
2022-09-21T12:29:44.592Z,98775.72
2022-09-21T12:32:12.274Z,98772.16
2022-09-21T12:34:39.983Z,98772.63
2022-09-21T12:37:06.994Z,98765.63
2022-09-21T12:39:33.909Z,98765.31
2022-09-21T12:42:01.392Z,98766.38
2022-09-21T12:44:27.900Z,98755.88
2022-09-21T12:46:54.658Z,98757.75
2022-09-21T12:49:20.995Z,98753.13
2022-09-21T12:51:47.273Z,98755.81
2022-09-21T12:54:13.565Z,98762.41
2022-09-21T12:56:40.962Z,98752.44
2022-09-21T12:59:08.085Z,98744.38
2022-09-21T13:01:34.637Z,98749.44
2022-09-21T13:04:01.336Z,98747.25
2022-09-21T13:06:27.695Z,98744.16
2022-09-21T13:08:55.027Z,98752.97
2022-09-21T13:11:21.349Z,98746.50
2022-09-21T13:13:48.805Z,98752.88
2022-09-21T13:16:15.666Z,98746.69
2022-09-21T13:18:43.104Z,98746.94
2022-09-21T13:21:09.641Z,98739.97
2022-09-21T13:23:36.587Z,98744.50
2022-09-21T13:26:05.941Z,98738.31
2022-09-21T13:28:32.592Z,98736.72
2022-09-21T13:30:58.915Z,98738.81
2022-09-21T13:33:25.389Z,98735.31
2022-09-21T13:35:51.654Z,98732.88
2022-09-21T13:38:18.125Z,98736.91
2022-09-21T13:40:44.465Z,98729.56
2022-09-21T13:43:10.795Z,98726.22
2022-09-21T13:45:37.083Z,98727.78
2022-09-21T13:48:03.407Z,98724.97
2022-09-21T13:50:29.711Z,98725.72
2022-09-21T13:52:56.397Z,98723.81
2022-09-21T13:55:23.645Z,98724.25
2022-09-21T13:57:50.115Z,98719.66
2022-09-21T14:00:16.537Z,98714.22
2022-09-21T14:02:42.974Z,98711.91
2022-09-21T14:05:09.517Z,98715.81
2022-09-21T14:07:36.909Z,98713.28
2022-09-21T14:10:03.208Z,98709.94
2022-09-21T14:12:29.524Z,98703.47
2022-09-21T14:14:55.903Z,98705.56
2022-09-21T14:17:24.505Z,98703.13
2022-09-21T14:19:51.867Z,98699.06
2022-09-21T14:22:18.381Z,98701.16
2022-09-21T14:24:44.686Z,98699.78
2022-09-21T14:27:11.103Z,98701.66
2022-09-21T14:29:37.354Z,98702.72
2022-09-21T14:32:03.627Z,98702.13
2022-09-21T14:34:30.534Z,98697.81
2022-09-21T14:36:56.939Z,98691.91
2022-09-21T14:39:23.260Z,98691.31
2022-09-21T14:41:49.715Z,98698.28
2022-09-21T14:44:16.472Z,98686.97
2022-09-21T14:46:42.888Z,98685.38
2022-09-21T14:49:09.774Z,98686.66
2022-09-21T14:51:36.214Z,98688.28
2022-09-21T14:54:02.687Z,98678.84
2022-09-21T14:56:29.331Z,98681.78
2022-09-21T14:58:55.668Z,98682.28
2022-09-21T15:01:22.475Z,98685.19
2022-09-21T15:03:48.887Z,98679.00
2022-09-21T15:06:15.121Z,98683.78
2022-09-21T15:08:41.505Z,98680.78
2022-09-21T15:11:08.041Z,98674.84
2022-09-21T15:13:34.382Z,98675.09
2022-09-21T15:16:01.563Z,98671.03
2022-09-21T15:18:28.186Z,98666.72
2022-09-21T15:20:54.508Z,98668.81
2022-09-21T15:23:20.983Z,98668.25
2022-09-21T15:25:47.309Z,98658.84
2022-09-21T15:28:13.609Z,98667.13
2022-09-21T15:30:40.054Z,98671.91
2022-09-21T15:33:06.361Z,98665.16
2022-09-21T15:35:32.712Z,98666.44
2022-09-21T15:37:59.053Z,98661.56
2022-09-21T15:40:25.639Z,98663.69
2022-09-21T15:42:52.028Z,98672.16
2022-09-21T15:45:18.425Z,98667.28
2022-09-21T15:47:44.753Z,98664.28
2022-09-21T15:50:11.012Z,98665.69
2022-09-21T15:52:38.080Z,98662.84
2022-09-21T15:55:05.913Z,98666.44
2022-09-21T15:57:34.437Z,98666.53
2022-09-21T16:00:02.460Z,98670.38
2022-09-21T16:02:32.774Z,98659.19
2022-09-21T16:04:59.165Z,98661.38
2022-09-21T16:07:25.665Z,98656.34
2022-09-21T16:09:51.966Z,98662.28
2022-09-21T16:12:18.241Z,98657.75
2022-09-21T16:14:44.508Z,98656.66
2022-09-21T16:17:10.790Z,98657.25
2022-09-21T16:19:37.047Z,98656.19
2022-09-21T16:22:03.396Z,98660.50
2022-09-21T16:24:31.677Z,98666.69
2022-09-21T16:26:58.066Z,98659.44
2022-09-21T16:29:24.775Z,98663.75
2022-09-21T16:31:51.212Z,98657.59
2022-09-21T16:34:17.717Z,98655.16
2022-09-21T16:36:44.046Z,98664.78
2022-09-21T16:39:14.815Z,98663.19
2022-09-21T16:41:41.715Z,98663.44
2022-09-21T16:44:08.070Z,98663.44
2022-09-21T16:46:34.483Z,98669.03
2022-09-21T16:49:03.802Z,98670.88
2022-09-21T16:51:30.156Z,98671.94
2022-09-21T16:53:56.388Z,98679.16
2022-09-21T16:56:23.115Z,98672.16
2022-09-21T16:58:49.360Z,98674.28
2022-09-21T17:01:15.719Z,98676.41
2022-09-21T17:03:42.204Z,98668.56
2022-09-21T17:06:08.464Z,98671.25
2022-09-21T17:08:35.347Z,98680.13
2022-09-21T17:11:01.651Z,98680.13
2022-09-21T17:13:27.926Z,98684.66
2022-09-21T17:15:54.277Z,98680.13
2022-09-21T17:18:20.568Z,98680.44
2022-09-21T17:20:46.856Z,98681.59
2022-09-21T17:23:15.911Z,98682.50
2022-09-21T17:25:42.186Z,98681.78
2022-09-21T17:28:08.502Z,98682.34
2022-09-21T17:30:35.322Z,98680.00
2022-09-21T17:33:01.716Z,98677.09
2022-09-21T17:35:28.426Z,98678.69
2022-09-21T17:37:54.920Z,98678.69
2022-09-21T17:40:21.328Z,98684.88
2022-09-21T17:42:47.623Z,98677.91
2022-09-21T17:45:14.803Z,98681.63
2022-09-21T17:47:41.023Z,98676.75
2022-09-21T17:50:07.399Z,98685.84
2022-09-21T17:52:33.869Z,98679.91
2022-09-21T17:55:04.959Z,98678.53
2022-09-21T17:57:32.047Z,98685.19
2022-09-21T17:59:58.269Z,98691.34
2022-09-21T18:02:24.540Z,98687.28
2022-09-21T18:04:51.225Z,98696.84
2022-09-21T18:07:17.466Z,98690.34
2022-09-21T18:09:43.667Z,98689.22
2022-09-21T18:12:10.178Z,98688.06
2022-09-21T18:14:36.380Z,98688.53
2022-09-21T18:17:02.618Z,98698.69
2022-09-21T18:19:28.842Z,98701.03
2022-09-21T18:21:55.594Z,98701.25
2022-09-21T18:24:21.828Z,98706.63
2022-09-21T18:26:48.028Z,98702.28
2022-09-21T18:29:37.887Z,98702.78
2022-09-21T18:32:00.936Z,98700.00
2022-09-21T18:34:27.165Z,98699.44
2022-09-21T18:36:53.351Z,98703.41
2022-09-21T18:39:19.612Z,98705.50
2022-09-21T18:41:46.106Z,98710.53
2022-09-21T18:44:12.339Z,98711.78
2022-09-21T18:46:38.611Z,98706.91
2022-09-21T18:49:05.261Z,98711.69
2022-09-21T18:51:31.784Z,98714.03
2022-09-21T18:53:58.114Z,98712.66
2022-09-21T18:56:24.440Z,98717.41
2022-09-21T18:58:50.767Z,98725.69
2022-09-21T19:01:17.101Z,98726.13
2022-09-21T19:03:43.833Z,98712.16
2022-09-21T19:06:10.068Z,98723.91
2022-09-21T19:08:36.378Z,98716.94
2022-09-21T19:11:02.604Z,98721.72
2022-09-21T19:13:28.797Z,98718.44
2022-09-21T19:16:00.854Z,98719.47
2022-09-21T19:18:27.891Z,98714.38
2022-09-21T19:20:54.125Z,98720.78
2022-09-21T19:23:20.485Z,98713.00
2022-09-21T19:25:49.753Z,98717.75
2022-09-21T19:28:16.622Z,98721.72
2022-09-21T19:30:42.886Z,98716.59
2022-09-21T19:33:09.096Z,98715.22
2022-09-21T19:35:35.298Z,98720.81
2022-09-21T19:38:01.614Z,98719.16
2022-09-21T19:40:27.907Z,98715.91
2022-09-21T19:42:54.135Z,98723.34
2022-09-21T19:45:20.341Z,98724.41
2022-09-21T19:47:46.551Z,98724.63
2022-09-21T19:50:12.878Z,98717.09
2022-09-21T19:52:39.071Z,98708.47
2022-09-21T19:55:05.275Z,98707.88
2022-09-21T19:57:31.772Z,98706.47
2022-09-21T19:59:58.057Z,98706.47
2022-09-21T20:02:24.265Z,98712.06
2022-09-21T20:07:42.192Z,98712.78
2022-09-21T20:10:08.402Z,98721.84
2022-09-21T20:12:34.888Z,98716.13
2022-09-21T20:15:01.134Z,98723.38
2022-09-21T20:17:29.474Z,98714.75
2022-09-21T20:19:55.656Z,98719.75
2022-09-21T20:22:21.863Z,98718.09
2022-09-21T20:24:48.109Z,98713.00
2022-09-21T20:27:14.428Z,98708.72
2022-09-21T20:29:43.510Z,98712.41
2022-09-21T20:32:12.841Z,98710.78
2022-09-21T20:34:39.132Z,98710.78
2022-09-21T20:37:06.453Z,98715.56
2022-09-21T20:39:32.720Z,98718.22
2022-09-21T20:41:59.601Z,98720.06
2022-09-21T20:44:25.851Z,98714.16
2022-09-21T20:46:52.097Z,98716.03
2022-09-21T20:49:18.308Z,98719.94
2022-09-21T20:51:44.517Z,98713.81
2022-09-21T20:54:10.736Z,98715.91
2022-09-21T20:56:36.966Z,98721.25
2022-09-21T20:59:03.291Z,98723.09
2022-09-21T21:01:29.586Z,98716.34
2022-09-21T21:03:55.860Z,98714.72
2022-09-21T21:06:22.774Z,98717.41
2022-09-21T21:08:49.071Z,98716.81
2022-09-21T21:11:15.603Z,98724.00
2022-09-21T21:13:41.994Z,98725.28
2022-09-21T21:16:11.769Z,98732.25
2022-09-21T21:18:38.761Z,98726.34
2022-09-21T21:21:05.708Z,98733.78
2022-09-21T21:23:32.231Z,98732.13
2022-09-21T21:25:58.656Z,98735.88
2022-09-21T21:28:24.860Z,98738.75
2022-09-21T21:30:51.137Z,98731.75
2022-09-21T21:33:17.345Z,98733.03
2022-09-21T21:35:43.545Z,98735.72
2022-09-21T21:38:09.801Z,98736.75
2022-09-21T21:40:36.132Z,98735.34
2022-09-21T21:43:02.598Z,98733.94
2022-09-21T21:45:28.869Z,98735.00
2022-09-21T21:47:55.131Z,98736.84
2022-09-21T21:50:21.558Z,98733.34
2022-09-21T21:52:47.748Z,98726.63
2022-09-21T21:55:13.991Z,98731.97
2022-09-21T21:57:40.182Z,98728.69
2022-09-21T22:00:06.386Z,98730.53
2022-09-21T22:02:32.662Z,98726.50
2022-09-21T22:04:59.198Z,98734.50
2022-09-21T22:07:25.378Z,98726.94
2022-09-21T22:09:51.744Z,98726.56
2022-09-21T22:12:17.936Z,98730.16
2022-09-21T22:14:45.094Z,98724.09
2022-09-21T22:17:11.379Z,98723.38
2022-09-21T22:19:37.624Z,98724.28
2022-09-21T22:22:03.880Z,98730.53
2022-09-21T22:24:30.101Z,98719.13
2022-09-21T22:26:56.338Z,98723.72
2022-09-21T22:29:22.553Z,98712.31
2022-09-21T22:31:48.815Z,98716.47
2022-09-21T22:34:15.078Z,98714.91
2022-09-21T22:36:41.378Z,98717.41
2022-09-21T22:39:08.181Z,98719.13
2022-09-21T22:41:34.407Z,98712.84
2022-09-21T22:44:00.610Z,98713.50
2022-09-21T22:46:26.831Z,98711.72
2022-09-21T22:48:53.147Z,98717.69
2022-09-21T22:51:19.400Z,98711.22
2022-09-21T22:53:45.706Z,98718.00
2022-09-21T22:56:12.084Z,98720.53
2022-09-21T22:58:38.568Z,98708.88
2022-09-21T23:01:04.784Z,98707.69
2022-09-21T23:03:31.009Z,98702.81
2022-09-21T23:05:57.373Z,98706.94
2022-09-21T23:08:23.561Z,98702.28
2022-09-21T23:10:49.739Z,98701.31
2022-09-21T23:13:15.952Z,98699.09
2022-09-21T23:15:42.145Z,98705.88
2022-09-21T23:18:08.649Z,98706.31
2022-09-21T23:20:34.918Z,98699.78
2022-09-21T23:23:01.125Z,98702.31
2022-09-21T23:25:27.487Z,98698.25
2022-09-21T23:27:53.737Z,98692.69
2022-09-21T23:30:20.224Z,98699.28
2022-09-21T23:32:46.564Z,98701.34
2022-09-21T23:35:12.880Z,98701.19
2022-09-21T23:37:39.094Z,98694.66
2022-09-21T23:40:05.675Z,98687.31
2022-09-21T23:42:31.878Z,98691.22
2022-09-21T23:44:58.065Z,98697.00
2022-09-21T23:47:24.311Z,98690.25
2022-09-21T23:49:51.292Z,98691.50
2022-09-21T23:52:18.109Z,98686.63
2022-09-21T23:54:44.986Z,98686.03
2022-09-21T23:57:11.320Z,98682.16
2022-09-21T23:59:37.548Z,98678.88
